createdAt,value
2022-07-28T00:00:18.801Z,1.07
2022-07-28T00:02:47.222Z,1.07
2022-07-28T00:05:15.579Z,1.10
2022-07-28T00:07:43.928Z,0.80
2022-07-28T00:10:12.979Z,0.93
2022-07-28T00:12:41.924Z,1.00
2022-07-28T00:15:11.135Z,1.43
2022-07-28T00:17:40.835Z,1.53
2022-07-28T00:20:11.415Z,1.07
2022-07-28T00:22:43.071Z,1.07
2022-07-28T00:25:12.013Z,1.40
2022-07-28T00:27:40.339Z,0.90
2022-07-28T00:30:10.062Z,1.60
2022-07-28T00:32:40.014Z,0.93
2022-07-28T00:35:09.057Z,1.10
2022-07-28T00:37:38.649Z,1.03
2022-07-28T00:40:09.780Z,1.20
2022-07-28T00:42:38.137Z,1.57
2022-07-28T00:45:08.202Z,1.30
2022-07-28T00:47:36.478Z,1.70
2022-07-28T00:50:07.308Z,1.53
2022-07-28T00:52:35.797Z,1.60
2022-07-28T00:55:05.856Z,1.20
2022-07-28T00:57:35.001Z,1.40
2022-07-28T01:00:03.900Z,1.20
2022-07-28T01:02:32.418Z,1.03
2022-07-28T01:05:00.743Z,1.17
2022-07-28T01:07:36.526Z,1.10
2022-07-28T01:10:11.004Z,0.73
2022-07-28T01:12:50.338Z,0.97
2022-07-28T01:15:26.888Z,1.13
2022-07-28T01:18:05.219Z,1.20
2022-07-28T01:20:40.733Z,1.10
2022-07-28T01:23:36.859Z,0.93
2022-07-28T01:26:20.047Z,1.00
2022-07-28T01:29:02.239Z,1.10
2022-07-28T01:31:37.992Z,1.10
2022-07-28T01:34:10.443Z,1.00
2022-07-28T01:36:42.954Z,1.00
2022-07-28T01:39:12.372Z,1.17
2022-07-28T01:41:42.862Z,1.20
2022-07-28T01:44:16.015Z,1.10
2022-07-28T01:46:48.133Z,1.20
2022-07-28T01:49:19.401Z,1.47
2022-07-28T01:51:49.212Z,1.17
2022-07-28T01:54:19.373Z,1.40
2022-07-28T01:56:49.042Z,1.37
2022-07-28T01:59:19.289Z,1.40
2022-07-28T02:01:50.860Z,1.00
2022-07-28T02:04:22.144Z,1.20
2022-07-28T02:06:52.469Z,1.20
2022-07-28T02:09:24.032Z,1.20
2022-07-28T02:11:54.809Z,1.30
2022-07-28T02:14:24.833Z,1.43
2022-07-28T02:16:58.212Z,0.90
2022-07-28T02:19:29.509Z,0.83
2022-07-28T02:21:57.989Z,1.30
2022-07-28T02:24:27.782Z,0.90
2022-07-28T02:27:00.744Z,1.13
2022-07-28T02:30:02.208Z,1.17
2022-07-28T02:32:28.785Z,1.20
2022-07-28T02:35:09.582Z,1.20
2022-07-28T02:37:40.075Z,1.20
2022-07-28T02:40:14.397Z,1.27
2022-07-28T02:42:45.426Z,1.37
2022-07-28T02:45:16.572Z,1.00
2022-07-28T02:47:50.757Z,1.47
2022-07-28T02:50:24.261Z,1.77
2022-07-28T02:52:55.559Z,1.33
2022-07-28T02:55:24.398Z,1.17
2022-07-28T02:57:56.832Z,1.10
2022-07-28T03:00:26.633Z,1.10
2022-07-28T03:02:57.423Z,1.30
2022-07-28T03:05:26.023Z,1.30
2022-07-28T03:07:54.664Z,1.20
2022-07-28T03:10:33.003Z,1.17
2022-07-28T03:13:04.296Z,1.40
2022-07-28T03:15:32.662Z,1.60
2022-07-28T03:18:03.382Z,1.07
2022-07-28T03:20:31.855Z,1.33
2022-07-28T03:23:00.626Z,1.30
2022-07-28T03:25:34.087Z,1.60
2022-07-28T03:28:03.471Z,1.20
2022-07-28T03:30:38.005Z,1.27
2022-07-28T03:33:08.281Z,1.43
2022-07-28T03:35:39.924Z,1.53
2022-07-28T03:38:12.502Z,1.63
2022-07-28T03:40:46.029Z,1.10
2022-07-28T03:43:17.617Z,1.60
2022-07-28T03:45:47.876Z,1.53
2022-07-28T03:48:17.704Z,2.23
2022-07-28T03:50:46.257Z,1.57
2022-07-28T03:53:21.077Z,1.70
2022-07-28T03:55:50.998Z,1.30
2022-07-28T03:58:20.098Z,1.40
2022-07-28T04:00:49.376Z,1.40
2022-07-28T04:03:35.062Z,1.53
2022-07-28T04:06:08.384Z,2.00
2022-07-28T04:08:36.790Z,1.50
2022-07-28T04:11:05.090Z,1.80
2022-07-28T04:13:34.695Z,1.67
2022-07-28T04:16:03.063Z,1.20
2022-07-28T04:18:32.629Z,1.67
2022-07-28T04:21:00.840Z,1.30
2022-07-28T04:23:30.802Z,1.33
2022-07-28T04:25:59.097Z,2.00
2022-07-28T04:28:27.311Z,3.50
2022-07-28T04:30:55.642Z,14.50
2022-07-28T04:33:24.822Z,5.33
2022-07-28T04:35:54.644Z,5.93
2022-07-28T04:38:23.017Z,6.90
2022-07-28T04:40:51.329Z,3.50
2022-07-28T04:43:19.629Z,1.87
2022-07-28T04:45:53.271Z,2.07
2022-07-28T04:48:23.394Z,1.70
2022-07-28T04:50:52.845Z,1.87
2022-07-28T04:53:24.207Z,1.63
2022-07-28T04:55:53.602Z,1.73
2022-07-28T04:58:23.605Z,1.73
2022-07-28T05:00:52.738Z,1.37
2022-07-28T05:03:21.647Z,1.90
2022-07-28T05:05:54.316Z,1.40
2022-07-28T05:08:26.417Z,1.27
2022-07-28T05:10:56.157Z,1.50
2022-07-28T05:13:26.783Z,1.40
2022-07-28T05:15:57.396Z,1.60
2022-07-28T05:18:25.629Z,1.50
2022-07-28T05:20:53.867Z,1.73
2022-07-28T05:23:22.062Z,1.60
2022-07-28T05:25:52.104Z,1.40
2022-07-28T05:28:20.776Z,1.30
2022-07-28T05:30:49.032Z,8.77
2022-07-28T05:33:17.331Z,7.77
2022-07-28T05:35:51.572Z,11.20
2022-07-28T05:38:19.969Z,7.07
2022-07-28T05:40:48.908Z,3.80
2022-07-28T05:43:18.918Z,4.03
2022-07-28T05:45:47.637Z,2.17
2022-07-28T05:48:19.462Z,2.10
2022-07-28T05:50:47.765Z,1.93
2022-07-28T05:53:16.187Z,1.97
2022-07-28T05:56:00.200Z,1.30
2022-07-28T05:58:31.724Z,2.13
2022-07-28T06:01:01.508Z,1.70
2022-07-28T06:03:31.985Z,1.53
2022-07-28T06:06:14.850Z,1.50
2022-07-28T06:08:46.540Z,2.10
2022-07-28T06:11:21.981Z,1.63
2022-07-28T06:13:53.543Z,1.40
2022-07-28T06:16:23.037Z,2.13
2022-07-28T06:18:52.257Z,7.03
2022-07-28T06:21:22.472Z,4.30
2022-07-28T06:23:50.740Z,2.33
2022-07-28T06:26:20.939Z,1.63
2022-07-28T06:28:49.259Z,2.50
2022-07-28T06:31:19.011Z,1.80
2022-07-28T06:33:47.356Z,1.60
2022-07-28T06:36:15.675Z,1.90
2022-07-28T06:38:43.907Z,1.93
2022-07-28T06:41:12.222Z,1.70
2022-07-28T06:43:40.533Z,1.80
2022-07-28T06:46:09.074Z,1.80
2022-07-28T06:48:39.544Z,1.80
2022-07-28T06:51:08.088Z,1.60
2022-07-28T06:53:36.313Z,1.90
2022-07-28T06:56:07.523Z,1.83
2022-07-28T06:58:38.472Z,1.87
2022-07-28T07:01:07.885Z,1.80
2022-07-28T07:03:36.384Z,1.60
2022-07-28T07:06:06.071Z,1.53
2022-07-28T07:08:34.414Z,1.70
2022-07-28T07:11:02.750Z,1.33
2022-07-28T07:13:30.958Z,1.40
2022-07-28T07:15:59.277Z,1.70
2022-07-28T07:18:27.802Z,1.77
2022-07-28T07:20:58.324Z,1.70
2022-07-28T07:23:27.983Z,1.70
2022-07-28T07:25:56.500Z,1.77
2022-07-28T07:28:24.732Z,1.80
2022-07-28T07:30:53.142Z,2.07
2022-07-28T07:33:21.360Z,15.77
2022-07-28T07:35:49.704Z,9.50
2022-07-28T07:38:17.988Z,7.80
2022-07-28T07:40:47.636Z,4.47
2022-07-28T07:43:15.924Z,2.33
2022-07-28T07:45:44.185Z,2.27
2022-07-28T07:48:12.811Z,2.53
2022-07-28T07:50:41.276Z,1.83
2022-07-28T07:53:09.503Z,2.70
2022-07-28T07:55:38.023Z,1.60
2022-07-28T07:58:07.733Z,1.40
2022-07-28T08:00:36.174Z,2.17
2022-07-28T08:03:04.745Z,1.63
2022-07-28T08:05:39.614Z,1.70
2022-07-28T08:08:08.228Z,1.93
2022-07-28T08:10:37.153Z,1.80
2022-07-28T08:13:08.086Z,2.00
2022-07-28T08:15:36.479Z,1.83
2022-07-28T08:18:05.588Z,2.07
2022-07-28T08:20:34.091Z,1.80
2022-07-28T08:23:02.376Z,1.87
2022-07-28T08:25:30.651Z,1.57
2022-07-28T08:27:58.895Z,1.80
2022-07-28T08:30:32.835Z,1.90
2022-07-28T08:33:02.934Z,1.60
2022-07-28T08:35:34.719Z,2.10
2022-07-28T08:38:05.345Z,1.60
2022-07-28T08:40:35.698Z,1.73
2022-07-28T08:43:10.437Z,11.97
2022-07-28T08:45:41.031Z,7.57
2022-07-28T08:48:12.375Z,5.10
2022-07-28T08:50:40.860Z,3.40
2022-07-28T08:53:09.672Z,2.73
2022-07-28T08:55:38.777Z,1.93
2022-07-28T08:58:08.460Z,1.70
2022-07-28T09:00:36.880Z,1.90
2022-07-28T09:03:07.491Z,2.17
2022-07-28T09:05:36.944Z,1.17
2022-07-28T09:08:07.223Z,1.50
2022-07-28T09:10:35.445Z,1.40
2022-07-28T09:13:03.719Z,1.60
2022-07-28T09:15:32.893Z,1.50
2022-07-28T09:18:01.753Z,2.03
2022-07-28T09:20:31.349Z,1.20
2022-07-28T09:23:00.840Z,1.47
2022-07-28T09:25:30.264Z,1.30
2022-07-28T09:28:06.789Z,1.30
2022-07-28T09:30:54.208Z,1.43
2022-07-28T09:33:43.372Z,1.60
2022-07-28T09:36:16.753Z,1.40
2022-07-28T09:38:45.868Z,1.30
2022-07-28T09:41:14.690Z,1.43
2022-07-28T09:43:46.324Z,1.20
2022-07-28T09:46:18.369Z,2.47
2022-07-28T09:48:55.497Z,1.60
2022-07-28T09:51:27.307Z,1.20
2022-07-28T09:54:07.899Z,1.43
2022-07-28T09:56:37.153Z,1.37
2022-07-28T09:59:05.907Z,1.40
2022-07-28T10:01:52.347Z,1.10
2022-07-28T10:04:31.625Z,1.10
2022-07-28T10:07:06.705Z,1.40
2022-07-28T10:09:35.298Z,5.40
2022-07-28T10:12:21.004Z,5.30
2022-07-28T10:14:50.484Z,4.07
2022-07-28T10:17:30.233Z,2.50
2022-07-28T10:19:59.952Z,1.97
2022-07-28T10:22:33.272Z,1.53
2022-07-28T10:25:03.469Z,4.73
2022-07-28T10:27:33.112Z,8.50
2022-07-28T10:30:05.476Z,1.10
2022-07-28T10:32:39.386Z,1.10
2022-07-28T10:35:11.018Z,1.47
2022-07-28T10:37:46.935Z,1.40
2022-07-28T10:40:16.968Z,1.37
2022-07-28T10:42:45.530Z,1.23
2022-07-28T10:45:15.461Z,1.33
2022-07-28T10:47:45.030Z,1.00
2022-07-28T10:50:13.875Z,1.23
2022-07-28T10:52:50.155Z,1.47
2022-07-28T10:55:31.867Z,1.10
2022-07-28T10:58:11.269Z,1.37
2022-07-28T11:00:59.578Z,8.23
2022-07-28T11:03:43.100Z,8.40
2022-07-28T11:06:30.479Z,3.70
2022-07-28T11:09:20.830Z,3.03
2022-07-28T11:11:51.067Z,3.03
2022-07-28T11:14:37.352Z,1.63
2022-07-28T11:17:24.264Z,1.07
2022-07-28T11:20:27.064Z,1.33
2022-07-28T11:22:51.769Z,1.10
2022-07-28T11:25:22.593Z,1.57
2022-07-28T11:28:00.993Z,1.07
2022-07-28T11:30:53.251Z,1.20
2022-07-28T11:33:22.566Z,1.47
2022-07-28T11:35:56.315Z,1.30
2022-07-28T11:38:25.216Z,0.90
2022-07-28T11:40:56.385Z,1.10
2022-07-28T11:43:42.893Z,1.37
2022-07-28T11:46:33.501Z,1.17
2022-07-28T11:49:20.812Z,1.60
2022-07-28T11:52:17.517Z,1.03
2022-07-28T11:54:57.372Z,1.73
2022-07-28T11:57:29.426Z,1.30
2022-07-28T12:00:03.323Z,1.40
2022-07-28T12:02:35.397Z,1.77
2022-07-28T12:05:12.793Z,6.30
2022-07-28T12:07:47.782Z,9.10
2022-07-28T12:10:53.331Z,4.50
2022-07-28T12:13:27.737Z,3.60
2022-07-28T12:15:56.114Z,2.60
2022-07-28T12:18:24.847Z,2.10
2022-07-28T12:20:54.787Z,2.30
2022-07-28T12:23:45.396Z,1.60
2022-07-28T12:26:34.460Z,1.80
2022-07-28T12:29:12.979Z,1.20
2022-07-28T12:31:54.105Z,1.30
2022-07-28T12:34:24.176Z,1.20
2022-07-28T12:36:58.291Z,0.90
2022-07-28T12:39:26.980Z,1.00
2022-07-28T12:42:04.386Z,1.03
2022-07-28T12:44:38.868Z,1.00
2022-07-28T12:47:09.072Z,1.30
2022-07-28T12:49:38.604Z,1.23
2022-07-28T12:52:18.028Z,1.20
2022-07-28T12:54:55.834Z,1.00
2022-07-28T12:57:50.525Z,1.00
2022-07-28T13:00:24.493Z,0.90
2022-07-28T13:02:55.247Z,1.27
2022-07-28T13:05:56.179Z,1.17
2022-07-28T13:08:27.417Z,1.03
2022-07-28T13:10:58.857Z,1.10
2022-07-28T13:13:27.870Z,1.00
2022-07-28T13:16:17.197Z,1.13
2022-07-28T13:18:47.202Z,1.20
2022-07-28T13:21:16.654Z,1.13
2022-07-28T13:23:45.348Z,1.10
2022-07-28T13:26:13.638Z,1.00
2022-07-28T13:28:42.133Z,1.20
2022-07-28T13:31:10.420Z,1.07
2022-07-28T13:33:40.078Z,0.73
2022-07-28T13:36:08.984Z,1.80
2022-07-28T13:38:37.334Z,1.13
2022-07-28T13:41:05.653Z,1.20
2022-07-28T13:43:36.370Z,1.17
2022-07-28T13:46:05.393Z,1.20
2022-07-28T13:48:36.004Z,1.10
2022-07-28T13:51:05.795Z,1.53
2022-07-28T13:53:36.128Z,1.40
2022-07-28T13:56:09.650Z,0.97
2022-07-28T13:58:38.722Z,1.30
2022-07-28T14:01:07.326Z,1.30
2022-07-28T14:03:50.666Z,1.33
2022-07-28T14:06:25.883Z,1.60
2022-07-28T14:08:54.171Z,1.60
2022-07-28T14:11:22.558Z,3.57
2022-07-28T14:13:52.183Z,4.50
2022-07-28T14:16:21.029Z,2.90
2022-07-28T14:18:49.511Z,2.27
2022-07-28T14:21:18.720Z,2.10
2022-07-28T14:23:48.342Z,1.90
2022-07-28T14:26:35.134Z,1.20
2022-07-28T14:29:04.816Z,1.77
2022-07-28T14:31:40.311Z,1.13
2022-07-28T14:34:09.651Z,1.23
2022-07-28T14:36:38.007Z,1.30
2022-07-28T14:39:12.480Z,1.17
2022-07-28T14:41:42.647Z,1.10
2022-07-28T14:44:12.446Z,1.30
2022-07-28T14:46:44.041Z,1.47
2022-07-28T14:49:12.492Z,1.23
2022-07-28T14:51:44.909Z,1.03
2022-07-28T14:54:15.234Z,1.03
2022-07-28T14:56:44.081Z,1.77
2022-07-28T14:59:12.374Z,1.17
2022-07-28T15:01:40.793Z,1.40
2022-07-28T15:04:10.170Z,1.13
2022-07-28T15:06:38.608Z,1.20
2022-07-28T15:09:07.233Z,1.20
2022-07-28T15:11:37.529Z,1.33
2022-07-28T15:14:05.875Z,1.00
2022-07-28T15:16:34.302Z,1.00
2022-07-28T15:19:02.994Z,1.80
2022-07-28T15:21:36.183Z,1.00
2022-07-28T15:24:05.403Z,1.50
2022-07-28T15:26:33.670Z,1.40
2022-07-28T15:29:08.669Z,1.07
2022-07-28T15:31:37.837Z,1.20
2022-07-28T15:34:08.286Z,1.07
2022-07-28T15:36:38.821Z,1.30
2022-07-28T15:39:09.271Z,1.67
2022-07-28T15:41:37.641Z,1.50
2022-07-28T15:44:09.039Z,3.60
2022-07-28T15:46:37.491Z,5.03
2022-07-28T15:49:09.568Z,3.80
2022-07-28T15:51:39.269Z,2.87
2022-07-28T15:54:08.018Z,2.50
2022-07-28T15:56:37.348Z,2.20
2022-07-28T15:59:07.986Z,1.87
2022-07-28T16:01:36.351Z,1.90
2022-07-28T16:04:04.827Z,1.60
2022-07-28T16:06:47.004Z,1.37
2022-07-28T16:09:15.359Z,1.50
2022-07-28T16:11:43.638Z,1.50
2022-07-28T16:14:17.738Z,1.80
2022-07-28T16:16:46.526Z,1.70
2022-07-28T16:19:38.687Z,1.47
2022-07-28T16:22:04.320Z,1.23
2022-07-28T16:24:32.651Z,1.83
2022-07-28T16:27:01.036Z,1.20
2022-07-28T16:29:31.051Z,1.53
2022-07-28T16:31:59.344Z,1.40
2022-07-28T16:34:27.665Z,1.73
2022-07-28T16:36:56.079Z,1.40
2022-07-28T16:39:24.358Z,1.30
2022-07-28T16:41:53.856Z,1.53
2022-07-28T16:44:25.707Z,1.30
2022-07-28T16:46:55.407Z,1.57
2022-07-28T16:49:23.910Z,1.80
2022-07-28T16:51:52.341Z,1.67
2022-07-28T16:54:20.870Z,2.30
2022-07-28T16:56:49.314Z,1.90
2022-07-28T16:59:17.708Z,1.60
2022-07-28T17:01:46.865Z,1.50
2022-07-28T17:04:17.470Z,2.10
2022-07-28T17:06:46.319Z,3.57
2022-07-28T17:09:16.788Z,3.50
2022-07-28T17:11:45.308Z,3.00
2022-07-28T17:14:13.844Z,2.67
2022-07-28T17:16:42.308Z,2.00
2022-07-28T17:19:10.579Z,2.07
2022-07-28T17:21:40.201Z,1.80
2022-07-28T17:24:11.685Z,1.50
2022-07-28T17:29:28.508Z,1.70
2022-07-28T17:31:56.769Z,1.90
2022-07-28T17:34:25.110Z,1.50
2022-07-28T17:36:55.522Z,1.43
2022-07-28T17:39:23.832Z,1.60
2022-07-28T17:41:52.118Z,1.40
2022-07-28T17:44:21.532Z,1.40
2022-07-28T17:46:50.185Z,1.80
2022-07-28T17:49:18.741Z,1.27
2022-07-28T17:51:47.618Z,2.10
2022-07-28T17:54:19.177Z,1.70
2022-07-28T17:56:50.462Z,1.63
2022-07-28T17:59:18.989Z,1.30
2022-07-28T18:01:47.362Z,1.20
2022-07-28T18:04:15.883Z,1.20
2022-07-28T18:06:45.914Z,1.73
2022-07-28T18:09:14.351Z,1.80
2022-07-28T18:11:55.488Z,1.30
2022-07-28T18:14:27.306Z,1.30
2022-07-28T18:16:55.772Z,1.67
2022-07-28T18:19:24.039Z,1.43
2022-07-28T18:21:52.422Z,1.60
2022-07-28T18:24:22.282Z,1.10
2022-07-28T18:26:53.087Z,1.20
2022-07-28T18:29:22.432Z,1.90
2022-07-28T18:31:52.047Z,1.37
2022-07-28T18:34:23.190Z,1.40
2022-07-28T18:36:53.271Z,1.10
2022-07-28T18:39:21.638Z,1.17
2022-07-28T18:41:49.952Z,1.27
2022-07-28T18:44:20.476Z,1.40
2022-07-28T18:46:49.608Z,1.30
2022-07-28T18:49:18.181Z,1.30
2022-07-28T18:51:46.466Z,1.60
2022-07-28T18:54:20.050Z,1.10
2022-07-28T18:56:53.283Z,1.30
2022-07-28T18:59:23.147Z,1.27
2022-07-28T19:01:51.506Z,1.50
2022-07-28T19:04:20.185Z,1.30
2022-07-28T19:06:48.564Z,1.23
2022-07-28T19:09:16.882Z,1.27
2022-07-28T19:11:46.587Z,1.23
2022-07-28T19:14:16.136Z,1.50
2022-07-28T19:16:46.131Z,1.40
2022-07-28T19:19:15.162Z,1.57
2022-07-28T19:21:43.948Z,1.70
2022-07-28T19:24:12.976Z,1.43
2022-07-28T19:26:42.327Z,1.47
2022-07-28T19:29:10.601Z,2.03
2022-07-28T19:31:39.663Z,1.57
2022-07-28T19:34:10.060Z,1.30
2022-07-28T19:36:40.381Z,1.60
2022-07-28T19:39:08.986Z,1.20
2022-07-28T19:41:37.373Z,1.20
2022-07-28T19:44:06.094Z,1.03
2022-07-28T19:46:34.403Z,1.40
2022-07-28T19:49:02.843Z,1.43
2022-07-28T19:51:33.878Z,1.33
2022-07-28T19:54:02.209Z,1.53
2022-07-28T19:56:30.846Z,1.40
2022-07-28T19:59:00.381Z,1.73
2022-07-28T20:01:29.017Z,1.37
2022-07-28T20:04:03.471Z,1.20
2022-07-28T20:06:35.007Z,1.40
2022-07-28T20:09:04.132Z,1.33
2022-07-28T20:11:33.764Z,1.20
2022-07-28T20:14:02.556Z,1.73
2022-07-28T20:16:31.167Z,1.27
2022-07-28T20:18:59.497Z,1.63
2022-07-28T20:21:27.777Z,1.10
2022-07-28T20:23:58.070Z,1.80
2022-07-28T20:26:27.127Z,1.60
2022-07-28T20:28:56.421Z,1.80
2022-07-28T20:31:24.695Z,1.90
2022-07-28T20:33:53.074Z,1.37
2022-07-28T20:36:23.949Z,1.00
2022-07-28T20:38:57.374Z,1.80
2022-07-28T20:41:25.617Z,1.50
2022-07-28T20:44:18.475Z,1.73
2022-07-28T20:46:42.640Z,1.70
2022-07-28T20:49:11.024Z,1.40
2022-07-28T20:51:39.293Z,1.63
2022-07-28T20:54:18.830Z,1.23
2022-07-28T20:56:47.285Z,1.27
2022-07-28T20:59:15.840Z,0.90
2022-07-28T21:01:44.258Z,1.40
2022-07-28T21:04:13.278Z,1.20
2022-07-28T21:06:51.201Z,1.63
2022-07-28T21:09:23.188Z,1.23
2022-07-28T21:11:51.666Z,1.67
2022-07-28T21:14:20.004Z,1.00
2022-07-28T21:16:48.348Z,1.53
2022-07-28T21:19:16.840Z,1.30
2022-07-28T21:21:45.040Z,1.53
2022-07-28T21:24:13.595Z,1.67
2022-07-28T21:26:44.303Z,1.40
2022-07-28T21:29:12.418Z,1.30
2022-07-28T21:32:03.898Z,1.60
2022-07-28T21:34:30.045Z,1.67
2022-07-28T21:36:58.893Z,1.70
2022-07-28T21:39:27.172Z,1.30
2022-07-28T21:41:56.852Z,1.40
2022-07-28T21:44:25.114Z,1.53
2022-07-28T21:46:53.504Z,1.60
2022-07-28T21:49:21.891Z,1.63
2022-07-28T21:51:50.158Z,1.60
2022-07-28T21:54:18.721Z,1.60
2022-07-28T21:56:47.809Z,1.60
2022-07-28T21:59:17.412Z,1.47
2022-07-28T22:01:45.708Z,1.60
2022-07-28T22:04:14.422Z,1.70
2022-07-28T22:06:46.579Z,2.10
2022-07-28T22:09:15.357Z,1.87
2022-07-28T22:11:43.660Z,1.60
2022-07-28T22:14:12.232Z,1.33
2022-07-28T22:16:41.958Z,1.47
2022-07-28T22:19:11.885Z,1.50
2022-07-28T22:21:40.277Z,1.70
2022-07-28T22:24:09.183Z,1.80
2022-07-28T22:26:37.525Z,1.90
2022-07-28T22:29:05.715Z,2.03
2022-07-28T22:31:33.954Z,1.53
2022-07-28T22:34:03.622Z,2.00
2022-07-28T22:36:31.864Z,1.57
2022-07-28T22:39:00.055Z,2.20
2022-07-28T22:41:28.739Z,2.40
2022-07-28T22:43:57.061Z,1.67
2022-07-28T22:46:25.457Z,1.60
2022-07-28T22:48:53.758Z,1.70
2022-07-28T22:51:23.486Z,1.77
2022-07-28T22:53:51.738Z,2.20
2022-07-28T22:56:20.048Z,1.67
2022-07-28T22:58:49.578Z,1.90
2022-07-28T23:01:17.854Z,1.60
2022-07-28T23:03:46.376Z,1.70
2022-07-28T23:06:15.731Z,1.77
2022-07-28T23:08:45.367Z,2.33
2022-07-28T23:11:13.669Z,2.00
2022-07-28T23:13:41.970Z,1.50
2022-07-28T23:16:10.644Z,1.70
2022-07-28T23:18:40.425Z,1.60
2022-07-28T23:21:08.979Z,1.90
2022-07-28T23:23:37.450Z,2.00
2022-07-28T23:26:07.244Z,2.10
2022-07-28T23:28:36.482Z,1.60
2022-07-28T23:31:05.545Z,1.80
2022-07-28T23:33:54.317Z,1.63
2022-07-28T23:36:26.950Z,1.70
2022-07-28T23:38:56.592Z,1.70
2022-07-28T23:41:26.951Z,1.60
2022-07-28T23:43:55.672Z,1.50
2022-07-28T23:46:24.189Z,1.70
2022-07-28T23:48:52.746Z,1.60
2022-07-28T23:51:22.563Z,1.67
2022-07-28T23:54:06.783Z,1.70
2022-07-28T23:56:36.389Z,1.57
2022-07-28T23:59:04.568Z,1.67
